Terminal Aerodrome Forecast
Issued by NWS Pittsburgh, PA

Current Version | Previous Version | Text Only | Print | Product List | Glossary Off
Versions: 1 2 3 4 5 6 7 8 9 10 11 12 13 14 15 16 17 18 19 20 21 22 23 24 25 26 27 28 29

000
FTUS41 KPBZ 190200 AAA
TAFPIT
TAF AMD
KPIT 190246Z 1903/2006 24008G16KT P6SM VCSH BKN035
      TEMPO 1903/1905 1SM -SHSN BKN012 BKN035
     FM190500 25010KT P6SM FEW025
     FM191000 21008KT P6SM FEW025 BKN100
     FM192000 18011G18KT 4SM -SN BKN035 OVC100
      TEMPO 1922/2002 2SM -SN OVC020=

USA.gov is the U.S. government's official web portal to all federal, state and local government web resources and services.